createdAt,value
2023-02-17T00:01:22.880Z,25.20
2023-02-17T00:03:50.725Z,22.33
2023-02-17T00:06:21.350Z,23.03
2023-02-17T00:08:50.593Z,16.77
2023-02-17T00:11:18.599Z,19.37
2023-02-17T00:13:46.836Z,18.60
2023-02-17T00:16:16.739Z,19.47
2023-02-17T00:18:44.502Z,20.27
2023-02-17T00:21:13.519Z,23.03
2023-02-17T00:23:42.982Z,20.17
2023-02-17T00:26:10.794Z,20.97
2023-02-17T00:28:39.787Z,19.70
2023-02-17T00:31:08.517Z,20.53
2023-02-17T00:33:36.434Z,25.17
2023-02-17T00:36:06.057Z,19.20
2023-02-17T00:38:34.158Z,22.10
2023-02-17T00:41:03.236Z,19.93
2023-02-17T00:43:31.123Z,20.30
2023-02-17T00:46:04.675Z,20.23
2023-02-17T00:48:33.027Z,23.40
2023-02-17T00:51:01.060Z,19.80
2023-02-17T00:53:28.930Z,22.17
2023-02-17T00:55:57.102Z,21.30
2023-02-17T00:58:26.755Z,22.00
2023-02-17T01:00:54.542Z,26.30
2023-02-17T01:03:22.367Z,23.97
2023-02-17T01:05:50.640Z,42.00
2023-02-17T01:08:18.848Z,34.43
2023-02-17T01:10:47.386Z,38.00
2023-02-17T01:13:15.774Z,27.97
2023-02-17T01:15:46.047Z,29.70
2023-02-17T01:18:13.824Z,27.13
2023-02-17T01:20:42.113Z,28.33
2023-02-17T01:23:11.869Z,26.57
2023-02-17T01:25:39.951Z,26.43
2023-02-17T01:28:08.356Z,22.03
2023-02-17T01:30:36.601Z,24.77
2023-02-17T01:33:06.035Z,28.63
2023-02-17T01:35:36.519Z,37.13
2023-02-17T01:38:04.386Z,40.67
2023-02-17T01:40:33.135Z,41.80
2023-02-17T01:43:01.215Z,43.63
2023-02-17T01:45:33.307Z,43.93
2023-02-17T01:48:02.295Z,40.63
2023-02-17T01:50:33.351Z,41.33
2023-02-17T01:53:04.244Z,37.83
2023-02-17T01:55:32.952Z,40.47
2023-02-17T01:58:01.474Z,40.33
2023-02-17T02:00:30.054Z,42.57
2023-02-17T02:02:58.530Z,39.03
2023-02-17T02:05:26.307Z,43.27
2023-02-17T02:07:56.160Z,42.40
2023-02-17T02:10:23.983Z,35.20
2023-02-17T02:12:52.174Z,43.57
2023-02-17T02:15:21.594Z,38.17
2023-02-17T02:17:55.952Z,37.30
2023-02-17T02:20:36.870Z,44.03
2023-02-17T02:23:19.460Z,39.77
2023-02-17T02:25:55.467Z,38.33
2023-02-17T02:28:32.231Z,35.03
2023-02-17T02:31:07.303Z,32.97
2023-02-17T02:33:40.512Z,41.07
2023-02-17T02:36:12.991Z,34.67
2023-02-17T02:38:42.666Z,38.10
2023-02-17T02:41:13.075Z,32.73
2023-02-17T02:43:41.046Z,37.70
2023-02-17T02:46:09.455Z,33.97
2023-02-17T02:48:39.566Z,24.93
2023-02-17T02:51:13.925Z,20.40
2023-02-17T02:53:55.466Z,20.87
2023-02-17T02:56:29.246Z,18.77
2023-02-17T02:59:02.009Z,22.33
2023-02-17T03:01:34.300Z,20.97
2023-02-17T03:04:06.934Z,18.83
2023-02-17T03:06:39.329Z,18.83
2023-02-17T03:09:10.573Z,19.63
2023-02-17T03:11:38.357Z,22.40
2023-02-17T03:14:07.264Z,20.10
2023-02-17T03:16:35.796Z,16.07
2023-02-17T03:19:04.893Z,21.53
2023-02-17T03:21:36.588Z,30.90
2023-02-17T03:24:04.521Z,20.07
2023-02-17T03:26:32.250Z,20.93
2023-02-17T03:29:00.097Z,26.93
2023-02-17T03:31:30.718Z,23.13
2023-02-17T03:33:58.908Z,22.93
2023-02-17T03:36:30.014Z,22.27
2023-02-17T03:38:58.036Z,25.17
2023-02-17T03:41:25.814Z,22.43
2023-02-17T03:43:53.764Z,25.53
2023-02-17T03:46:22.244Z,26.27
2023-02-17T03:48:50.004Z,31.43
2023-02-17T03:51:21.210Z,26.23
2023-02-17T03:53:50.581Z,23.07
2023-02-17T03:56:19.089Z,23.50
2023-02-17T03:58:47.088Z,25.40
2023-02-17T04:01:15.461Z,19.97
2023-02-17T04:03:43.794Z,20.57
2023-02-17T04:06:11.844Z,22.03
2023-02-17T04:08:40.550Z,19.17
2023-02-17T04:11:10.551Z,20.57
2023-02-17T04:13:38.477Z,21.20
2023-02-17T04:16:07.212Z,25.70
2023-02-17T04:18:35.468Z,24.40
2023-02-17T04:21:03.500Z,21.73
2023-02-17T04:23:31.196Z,20.93
2023-02-17T04:25:59.051Z,19.73
2023-02-17T04:28:28.368Z,24.53
2023-02-17T04:31:00.118Z,21.67
2023-02-17T04:33:28.248Z,22.27
2023-02-17T04:35:59.795Z,21.63
2023-02-17T04:38:28.257Z,23.67
2023-02-17T04:40:56.620Z,20.87
2023-02-17T04:43:24.446Z,26.00
2023-02-17T04:45:54.775Z,26.57
2023-02-17T04:48:22.527Z,22.90
2023-02-17T04:50:50.529Z,26.07
2023-02-17T04:53:18.398Z,24.57
2023-02-17T04:55:46.206Z,20.57
2023-02-17T04:58:13.932Z,20.80
2023-02-17T05:00:41.817Z,24.10
2023-02-17T05:03:10.906Z,28.67
2023-02-17T05:05:38.839Z,29.30
2023-02-17T05:08:06.692Z,27.30
2023-02-17T05:10:36.966Z,24.93
2023-02-17T05:13:05.178Z,22.47
2023-02-17T05:15:34.888Z,20.97
2023-02-17T05:18:03.072Z,25.30
2023-02-17T05:20:32.292Z,24.70
2023-02-17T05:23:00.091Z,22.90
2023-02-17T05:25:27.847Z,21.27
2023-02-17T05:27:55.904Z,23.13
2023-02-17T05:30:23.632Z,24.17
2023-02-17T05:32:51.396Z,23.50
2023-02-17T05:35:19.445Z,20.80
2023-02-17T05:37:48.893Z,27.40
2023-02-17T05:40:16.933Z,24.27
2023-02-17T05:42:44.675Z,19.83
2023-02-17T05:45:12.518Z,22.27
2023-02-17T05:47:40.330Z,24.47
2023-02-17T05:50:08.886Z,24.10
2023-02-17T05:52:36.626Z,25.40
2023-02-17T05:55:06.382Z,26.03
2023-02-17T05:57:34.888Z,21.43
2023-02-17T06:00:05.249Z,22.63
2023-02-17T06:02:33.116Z,24.63
2023-02-17T06:05:00.794Z,19.77
2023-02-17T06:07:28.823Z,25.77
2023-02-17T06:09:56.457Z,19.07
2023-02-17T06:12:27.868Z,22.90
2023-02-17T06:14:55.774Z,23.23
2023-02-17T06:17:23.852Z,22.93
2023-02-17T06:19:51.463Z,24.57
2023-02-17T06:22:19.205Z,20.93
2023-02-17T06:24:47.203Z,24.43
2023-02-17T06:27:14.961Z,24.37
2023-02-17T06:29:44.791Z,26.60
2023-02-17T06:32:12.797Z,28.40
2023-02-17T06:34:40.652Z,25.43
2023-02-17T06:37:08.424Z,29.77
2023-02-17T06:39:38.685Z,28.50
2023-02-17T06:42:08.733Z,27.30
2023-02-17T06:44:36.647Z,58.77
2023-02-17T06:47:06.172Z,34.87
2023-02-17T06:49:36.473Z,61.27
2023-02-17T06:52:06.730Z,63.00
2023-02-17T06:54:34.355Z,58.00
2023-02-17T06:57:02.863Z,54.20
2023-02-17T06:59:32.855Z,52.67
2023-02-17T07:02:02.399Z,52.63
2023-02-17T07:04:32.221Z,55.30
2023-02-17T07:07:00.067Z,42.97
2023-02-17T07:09:28.393Z,40.67
2023-02-17T07:11:56.040Z,40.17
2023-02-17T07:14:25.005Z,48.20
2023-02-17T07:16:53.467Z,34.10
2023-02-17T07:19:21.349Z,38.50
2023-02-17T07:21:50.538Z,41.77
2023-02-17T07:24:18.423Z,36.00
2023-02-17T07:26:46.194Z,46.33
2023-02-17T07:29:15.590Z,31.83
2023-02-17T07:31:43.492Z,36.93
2023-02-17T07:34:12.032Z,36.40
2023-02-17T07:36:40.078Z,33.63
2023-02-17T07:39:09.458Z,37.20
2023-02-17T07:41:37.368Z,39.63
2023-02-17T07:44:05.296Z,37.80
2023-02-17T07:46:35.388Z,41.10
2023-02-17T07:49:03.125Z,48.37
2023-02-17T07:51:30.914Z,46.87
2023-02-17T07:54:00.496Z,60.27
2023-02-17T07:56:30.195Z,60.77
2023-02-17T07:58:57.850Z,55.00
2023-02-17T08:01:26.429Z,58.50
2023-02-17T08:03:54.632Z,56.37
2023-02-17T08:06:23.563Z,63.57
2023-02-17T08:09:09.416Z,57.33
2023-02-17T08:11:56.099Z,64.73
2023-02-17T08:14:24.501Z,58.70
2023-02-17T08:16:52.421Z,56.63
2023-02-17T08:19:20.347Z,50.33
2023-02-17T08:21:48.139Z,53.03
2023-02-17T08:24:17.332Z,46.63
2023-02-17T08:26:47.456Z,50.70
2023-02-17T08:29:15.333Z,43.50
2023-02-17T08:31:43.880Z,43.33
2023-02-17T08:34:14.543Z,37.30
2023-02-17T08:36:42.485Z,40.73
2023-02-17T08:39:14.950Z,31.77
2023-02-17T08:41:43.422Z,33.37
2023-02-17T08:44:14.374Z,30.57
2023-02-17T08:46:43.133Z,28.07
2023-02-17T08:49:12.671Z,29.90
2023-02-17T08:51:41.020Z,30.43
2023-02-17T08:54:10.442Z,30.73
2023-02-17T08:56:38.903Z,34.17
2023-02-17T08:59:07.019Z,30.03
2023-02-17T09:01:37.331Z,32.00
2023-02-17T09:04:06.044Z,32.53
2023-02-17T09:06:34.791Z,31.50
2023-02-17T09:09:02.874Z,32.47
2023-02-17T09:11:30.699Z,37.07
2023-02-17T09:13:58.345Z,30.83
2023-02-17T09:16:26.412Z,31.60
2023-02-17T09:18:55.882Z,29.97
2023-02-17T09:21:24.694Z,33.83
2023-02-17T09:23:54.945Z,34.87
2023-02-17T09:26:23.220Z,41.00
2023-02-17T09:28:51.495Z,36.17
2023-02-17T09:31:24.113Z,33.00
2023-02-17T09:33:52.483Z,29.00
2023-02-17T09:36:22.237Z,34.57
2023-02-17T09:38:51.515Z,40.30
2023-02-17T09:41:20.998Z,34.70
2023-02-17T09:43:51.474Z,33.87
2023-02-17T09:46:21.233Z,34.40
2023-02-17T09:48:50.506Z,38.47
2023-02-17T09:51:23.806Z,33.33
2023-02-17T09:53:58.782Z,26.60
2023-02-17T09:56:31.121Z,26.90
2023-02-17T09:59:01.547Z,20.30
2023-02-17T10:01:32.281Z,27.53
2023-02-17T10:04:03.570Z,24.03
2023-02-17T10:06:34.176Z,13.20
2023-02-17T10:09:05.087Z,8.13
2023-02-17T10:11:33.633Z,10.00
2023-02-17T10:14:04.318Z,5.63
2023-02-17T10:16:34.513Z,8.80
2023-02-17T10:19:03.772Z,8.03
2023-02-17T10:21:36.622Z,8.37
2023-02-17T10:24:05.977Z,15.87
2023-02-17T10:26:48.892Z,11.77
2023-02-17T10:29:22.408Z,11.17
2023-02-17T10:31:56.953Z,7.30
2023-02-17T10:34:33.731Z,5.70
2023-02-17T10:37:02.370Z,5.63
2023-02-17T10:39:42.737Z,5.83
2023-02-17T10:42:15.585Z,4.77
2023-02-17T10:44:43.685Z,4.83
2023-02-17T10:47:12.249Z,10.50
2023-02-17T10:49:43.687Z,6.13
2023-02-17T10:52:12.902Z,9.03
2023-02-17T10:54:45.803Z,9.03
2023-02-17T10:57:16.615Z,6.63
2023-02-17T10:59:45.193Z,4.77
2023-02-17T11:02:18.323Z,7.53
2023-02-17T11:04:47.495Z,5.60
2023-02-17T11:07:16.193Z,6.57
2023-02-17T11:09:49.135Z,4.73
2023-02-17T11:12:18.887Z,9.67
2023-02-17T11:14:48.578Z,13.07
2023-02-17T11:17:19.670Z,11.80
2023-02-17T11:19:55.527Z,10.57
2023-02-17T11:22:35.486Z,11.30
2023-02-17T11:25:08.987Z,10.23
2023-02-17T11:27:39.080Z,8.03
2023-02-17T11:30:08.848Z,6.33
2023-02-17T11:32:37.130Z,6.40
2023-02-17T11:35:06.706Z,5.47
2023-02-17T11:37:38.877Z,4.43
2023-02-17T11:40:20.288Z,9.10
2023-02-17T11:42:56.050Z,9.60
2023-02-17T11:45:24.803Z,10.33
2023-02-17T11:47:55.869Z,9.83
2023-02-17T11:50:40.796Z,10.40
2023-02-17T11:53:18.057Z,7.97
2023-02-17T11:55:52.365Z,13.73
2023-02-17T11:58:28.672Z,7.20
2023-02-17T12:01:04.034Z,8.20
2023-02-17T12:03:42.529Z,7.37
2023-02-17T12:06:14.749Z,7.40
2023-02-17T12:08:53.466Z,7.30
2023-02-17T12:11:28.299Z,9.17
2023-02-17T12:14:00.155Z,4.83
2023-02-17T12:16:41.356Z,6.60
2023-02-17T12:19:26.465Z,8.77
2023-02-17T12:21:59.684Z,8.10
2023-02-17T12:24:35.809Z,6.73
2023-02-17T12:27:08.094Z,7.90
2023-02-17T12:29:43.974Z,10.93
2023-02-17T12:32:17.961Z,7.17
2023-02-17T12:34:50.073Z,6.93
2023-02-17T12:37:20.886Z,8.27
2023-02-17T12:39:51.371Z,6.87
2023-02-17T12:42:22.623Z,5.97
2023-02-17T12:44:51.474Z,7.53
2023-02-17T12:47:22.418Z,5.70
2023-02-17T12:49:53.875Z,5.70
2023-02-17T12:52:26.937Z,4.87
2023-02-17T12:54:56.997Z,5.43
2023-02-17T12:57:29.074Z,9.03
2023-02-17T12:59:59.434Z,7.53
2023-02-17T13:02:27.485Z,6.43
2023-02-17T13:04:56.813Z,8.23
2023-02-17T13:07:39.619Z,9.80
2023-02-17T13:10:08.823Z,9.13
2023-02-17T13:12:40.933Z,5.03
2023-02-17T13:15:26.295Z,7.63
2023-02-17T13:17:56.287Z,6.70
2023-02-17T13:20:50.931Z,6.90
2023-02-17T13:23:30.206Z,5.60
2023-02-17T13:26:21.907Z,6.43
2023-02-17T13:28:53.330Z,5.60
2023-02-17T13:31:22.526Z,5.90
2023-02-17T13:33:52.172Z,3.53
2023-02-17T13:36:21.875Z,6.00
2023-02-17T13:39:01.534Z,5.93
2023-02-17T13:41:30.345Z,10.83
2023-02-17T13:43:59.330Z,6.43
2023-02-17T13:46:27.741Z,4.00
2023-02-17T13:49:03.147Z,4.57
2023-02-17T13:51:31.794Z,5.17
2023-02-17T13:54:05.815Z,5.13
2023-02-17T13:56:34.151Z,4.70
2023-02-17T13:59:12.199Z,6.97
2023-02-17T14:01:42.418Z,4.90
2023-02-17T14:04:19.710Z,5.00
2023-02-17T14:06:49.875Z,5.70
2023-02-17T14:09:24.861Z,6.53
2023-02-17T14:11:53.325Z,5.67
2023-02-17T14:14:23.322Z,5.77
2023-02-17T14:16:58.071Z,7.70
2023-02-17T14:19:25.931Z,5.77
2023-02-17T14:22:01.926Z,4.73
2023-02-17T14:24:30.812Z,9.17
2023-02-17T14:27:00.230Z,9.27
2023-02-17T14:29:38.789Z,5.70
2023-02-17T14:32:07.013Z,6.47
2023-02-17T14:34:36.451Z,4.90
2023-02-17T14:37:11.044Z,7.17
2023-02-17T14:39:39.362Z,7.83
2023-02-17T14:42:09.700Z,7.03
2023-02-17T14:44:38.881Z,6.93
2023-02-17T14:47:07.109Z,7.07
2023-02-17T14:49:34.801Z,7.20
2023-02-17T14:52:03.349Z,5.57
2023-02-17T14:54:31.338Z,6.83
2023-02-17T14:57:04.468Z,7.83
2023-02-17T14:59:32.456Z,7.67
2023-02-17T15:02:01.833Z,7.00
2023-02-17T15:04:29.954Z,9.20
2023-02-17T15:06:57.877Z,11.80
2023-02-17T15:09:29.880Z,10.87
2023-02-17T15:11:59.403Z,6.37
2023-02-17T15:14:27.411Z,7.70
2023-02-17T15:16:55.547Z,5.80
2023-02-17T15:19:24.949Z,9.50
2023-02-17T15:21:53.426Z,9.13
2023-02-17T15:24:22.132Z,10.23
2023-02-17T15:26:50.146Z,7.07
2023-02-17T15:29:19.268Z,6.50
2023-02-17T15:31:47.707Z,8.40
2023-02-17T15:34:19.923Z,7.73
2023-02-17T15:36:52.384Z,8.93
2023-02-17T15:39:22.552Z,6.90
2023-02-17T15:41:51.017Z,11.57
2023-02-17T15:44:21.952Z,8.10
2023-02-17T15:46:51.369Z,10.93
2023-02-17T15:49:19.402Z,8.47
2023-02-17T15:51:47.203Z,10.93
2023-02-17T15:54:19.532Z,9.67
2023-02-17T15:56:49.341Z,10.57
2023-02-17T15:59:19.069Z,8.13
2023-02-17T16:01:46.931Z,15.97
2023-02-17T16:04:16.329Z,18.63
2023-02-17T16:06:44.482Z,16.40
2023-02-17T16:09:12.251Z,10.07
2023-02-17T16:11:47.012Z,9.30
2023-02-17T16:14:22.128Z,8.17
2023-02-17T16:16:51.047Z,8.93
2023-02-17T16:19:18.821Z,7.23
2023-02-17T16:21:46.542Z,8.60
2023-02-17T16:24:14.990Z,10.03
2023-02-17T16:26:44.318Z,9.40
2023-02-17T16:29:15.237Z,10.93
2023-02-17T16:31:43.252Z,8.80
2023-02-17T16:34:14.914Z,9.90
2023-02-17T16:36:42.932Z,10.47
2023-02-17T16:39:14.598Z,9.90
2023-02-17T16:41:43.913Z,10.17
2023-02-17T16:44:15.314Z,12.00
2023-02-17T16:46:47.023Z,14.50
2023-02-17T16:49:22.935Z,13.97
2023-02-17T16:51:52.144Z,13.73
2023-02-17T16:54:20.231Z,11.03
2023-02-17T16:56:48.870Z,14.20
2023-02-17T16:59:18.869Z,11.27
2023-02-17T17:01:46.722Z,14.13
2023-02-17T17:04:15.580Z,14.63
2023-02-17T17:06:44.706Z,11.50
2023-02-17T17:09:17.952Z,14.40
2023-02-17T17:11:47.101Z,10.40
2023-02-17T17:14:17.356Z,14.77
2023-02-17T17:16:50.457Z,14.80
2023-02-17T17:19:18.654Z,9.77
2023-02-17T17:21:46.924Z,14.73
2023-02-17T17:24:15.036Z,8.33
2023-02-17T17:26:44.799Z,12.10
2023-02-17T17:29:14.087Z,10.40
2023-02-17T17:31:42.455Z,17.00
2023-02-17T17:34:15.320Z,11.53
2023-02-17T17:36:44.073Z,8.00
2023-02-17T17:39:15.015Z,11.17
2023-02-17T17:41:43.053Z,10.53
2023-02-17T17:44:10.846Z,8.60
2023-02-17T17:46:40.232Z,14.47
2023-02-17T17:49:10.944Z,8.37
2023-02-17T17:51:41.113Z,12.33
2023-02-17T17:54:09.008Z,13.73
2023-02-17T17:56:38.852Z,13.97
2023-02-17T17:59:07.816Z,7.70
2023-02-17T18:01:38.036Z,7.27
2023-02-17T18:04:08.516Z,12.37
2023-02-17T18:06:39.649Z,11.43
2023-02-17T18:09:19.474Z,15.17
2023-02-17T18:11:54.828Z,12.20
2023-02-17T18:14:23.035Z,8.50
2023-02-17T18:16:52.012Z,12.50
2023-02-17T18:19:21.177Z,16.63
2023-02-17T18:21:49.062Z,11.37
2023-02-17T18:24:18.118Z,13.03
2023-02-17T18:26:45.737Z,11.57
2023-02-17T18:29:13.545Z,15.83
2023-02-17T18:31:41.311Z,12.63
2023-02-17T18:34:09.596Z,9.60
2023-02-17T18:36:37.808Z,11.57
2023-02-17T18:39:06.062Z,11.53
2023-02-17T18:41:35.574Z,14.97
2023-02-17T18:44:04.343Z,18.10
2023-02-17T18:46:34.257Z,23.23
2023-02-17T18:49:02.166Z,21.07
2023-02-17T18:51:29.866Z,15.00
2023-02-17T18:53:58.791Z,18.23
2023-02-17T18:56:28.782Z,17.70
2023-02-17T18:58:57.903Z,13.90
2023-02-17T19:01:27.276Z,19.57
2023-02-17T19:03:56.067Z,25.83
2023-02-17T19:06:24.817Z,15.57
2023-02-17T19:08:52.637Z,19.47
2023-02-17T19:11:21.589Z,20.33
2023-02-17T19:13:50.068Z,16.37
2023-02-17T19:16:20.432Z,22.30
2023-02-17T19:18:48.462Z,24.30
2023-02-17T19:21:16.640Z,22.70
2023-02-17T19:23:45.093Z,19.70
2023-02-17T19:26:13.754Z,16.57
2023-02-17T19:28:41.808Z,22.53
2023-02-17T19:31:10.501Z,28.10
2023-02-17T19:33:40.258Z,24.10
2023-02-17T19:36:08.979Z,33.97
2023-02-17T19:38:39.487Z,32.83
2023-02-17T19:41:09.666Z,33.47
2023-02-17T19:43:37.832Z,24.87
2023-02-17T19:46:06.061Z,28.60
2023-02-17T19:48:34.776Z,28.10
2023-02-17T19:51:06.912Z,27.87
2023-02-17T19:53:35.291Z,32.53
2023-02-17T19:56:12.142Z,31.63
2023-02-17T19:58:40.592Z,26.60
2023-02-17T20:01:09.870Z,28.50
2023-02-17T20:03:37.929Z,26.07
2023-02-17T20:06:09.728Z,21.60
2023-02-17T20:08:38.379Z,20.73
2023-02-17T20:11:07.963Z,14.40
2023-02-17T20:13:45.250Z,14.87
2023-02-17T20:16:14.478Z,10.33
2023-02-17T20:18:42.938Z,15.87
2023-02-17T20:21:14.014Z,14.53
2023-02-17T20:23:41.921Z,16.93
2023-02-17T20:26:13.275Z,12.47
2023-02-17T20:28:41.394Z,13.27
2023-02-17T20:31:10.169Z,12.77
2023-02-17T20:33:38.377Z,13.83
2023-02-17T20:36:07.545Z,9.33
2023-02-17T20:38:37.570Z,11.53
2023-02-17T20:41:05.720Z,13.17
2023-02-17T20:43:33.776Z,18.50
2023-02-17T20:46:01.699Z,18.30
2023-02-17T20:48:29.330Z,17.97
2023-02-17T20:50:57.516Z,22.70
2023-02-17T20:53:25.573Z,18.10
2023-02-17T20:55:54.931Z,18.40
2023-02-17T20:58:22.774Z,22.87
2023-02-17T21:00:50.905Z,22.00
2023-02-17T21:03:18.758Z,19.17
2023-02-17T21:05:46.893Z,21.13
2023-02-17T21:08:14.877Z,21.70
2023-02-17T21:10:43.011Z,18.27
2023-02-17T21:13:12.403Z,22.00
2023-02-17T21:15:40.098Z,15.87
2023-02-17T21:18:08.989Z,20.80
2023-02-17T21:20:38.337Z,19.87
2023-02-17T21:23:06.693Z,15.70
2023-02-17T21:25:34.574Z,20.07
2023-02-17T21:28:02.284Z,16.60
2023-02-17T21:30:31.464Z,14.03
2023-02-17T21:32:59.193Z,16.53
2023-02-17T21:35:27.327Z,14.20
2023-02-17T21:37:55.868Z,13.30
2023-02-17T21:40:23.667Z,11.57
2023-02-17T21:43:08.744Z,13.87
2023-02-17T21:45:40.043Z,12.07
2023-02-17T21:48:08.640Z,12.20
2023-02-17T21:50:36.246Z,12.60
2023-02-17T21:53:04.039Z,12.30
2023-02-17T21:55:32.996Z,12.87
2023-02-17T21:58:00.776Z,14.47
2023-02-17T22:00:28.562Z,12.77
2023-02-17T22:02:57.740Z,13.17
2023-02-17T22:05:25.440Z,13.50
2023-02-17T22:07:53.408Z,14.80
2023-02-17T22:10:21.272Z,15.13
2023-02-17T22:12:48.949Z,11.47
2023-02-17T22:15:17.243Z,10.10
2023-02-17T22:17:44.913Z,9.73
2023-02-17T22:20:15.873Z,19.80
2023-02-17T22:22:43.519Z,15.23
2023-02-17T22:25:11.184Z,13.73
2023-02-17T22:27:39.481Z,10.70
2023-02-17T22:30:08.620Z,12.07
2023-02-17T22:32:36.965Z,10.87
2023-02-17T22:35:05.211Z,13.23
2023-02-17T22:37:34.295Z,10.17
2023-02-17T22:40:04.126Z,10.73
2023-02-17T22:42:32.318Z,9.70
2023-02-17T22:45:00.175Z,17.00
2023-02-17T22:47:28.380Z,12.10
2023-02-17T22:49:56.634Z,11.03
2023-02-17T22:52:24.556Z,9.67
2023-02-17T22:54:54.763Z,11.00
2023-02-17T22:57:22.491Z,10.80
2023-02-17T22:59:50.342Z,11.77
2023-02-17T23:02:18.085Z,12.07
2023-02-17T23:04:46.001Z,14.33
2023-02-17T23:07:14.284Z,12.60
2023-02-17T23:09:42.021Z,12.53
2023-02-17T23:12:11.244Z,12.30
2023-02-17T23:14:40.394Z,12.67
2023-02-17T23:17:09.676Z,13.73
2023-02-17T23:19:37.851Z,10.97
2023-02-17T23:22:06.669Z,14.63
2023-02-17T23:24:34.521Z,12.13
2023-02-17T23:27:03.363Z,11.97
2023-02-17T23:29:33.317Z,11.83
2023-02-17T23:32:01.081Z,11.10
2023-02-17T23:34:29.412Z,10.07
2023-02-17T23:36:57.161Z,12.77
2023-02-17T23:39:24.891Z,10.87
2023-02-17T23:41:52.885Z,14.03
2023-02-17T23:44:20.631Z,11.20
2023-02-17T23:46:49.957Z,11.77
2023-02-17T23:49:18.131Z,15.67
2023-02-17T23:51:47.085Z,15.30
2023-02-17T23:54:15.425Z,13.13
2023-02-17T23:56:43.121Z,11.17
2023-02-17T23:59:11.061Z,14.17
